sensor_id;sensor_type;location;lat;lon;timestamp;temperature;humidity
10010;DHT22;5044;48.652;9.250;2023-04-06T00:05:10;1.00;66.10
10010;DHT22;5044;48.652;9.250;2023-04-06T00:08:08;1.20;64.80
10010;DHT22;5044;48.652;9.250;2023-04-06T00:10:51;0.80;67.80
10010;DHT22;5044;48.652;9.250;2023-04-06T00:15:52;1.00;70.70
10010;DHT22;5044;48.652;9.250;2023-04-06T00:23:38;0.90;64.80
10010;DHT22;5044;48.652;9.250;2023-04-06T00:26:19;0.70;64.10
10010;DHT22;5044;48.652;9.250;2023-04-06T00:54:40;0.50;63.80
10010;DHT22;5044;48.652;9.250;2023-04-06T00:57:38;0.30;65.30
10010;DHT22;5044;48.652;9.250;2023-04-06T01:00:17;0.40;63.90
10010;DHT22;5044;48.652;9.250;2023-04-06T01:02:56;-0.10;62.20
10010;DHT22;5044;48.652;9.250;2023-04-06T01:05:35;0.70;64.50
10010;DHT22;5044;48.652;9.250;2023-04-06T01:08:06;0.30;63.30
10010;DHT22;5044;48.652;9.250;2023-04-06T01:10:52;0.30;66.90
10010;DHT22;5044;48.652;9.250;2023-04-06T01:13:29;0.20;66.40
10010;DHT22;5044;48.652;9.250;2023-04-06T01:15:58;0.10;65.70
10010;DHT22;5044;48.652;9.250;2023-04-06T01:18:31;0.20;66.50
10010;DHT22;5044;48.652;9.250;2023-04-06T01:21:06;-0.10;67.50
10010;DHT22;5044;48.652;9.250;2023-04-06T01:26:57;0.20;68.50
10010;DHT22;5044;48.652;9.250;2023-04-06T01:29:37;-0.40;65.30
10010;DHT22;5044;48.652;9.250;2023-04-06T01:35:26;-0.50;65.50
10010;DHT22;5044;48.652;9.250;2023-04-06T01:38:08;0.40;65.60
10010;DHT22;5044;48.652;9.250;2023-04-06T01:40:50;0.60;70.10
10010;DHT22;5044;48.652;9.250;2023-04-06T01:43:26;-0.40;68.00
10010;DHT22;5044;48.652;9.250;2023-04-06T01:45:53;-0.40;67.90
10010;DHT22;5044;48.652;9.250;2023-04-06T01:48:31;-0.30;66.60
10010;DHT22;5044;48.652;9.250;2023-04-06T02:00:53;-0.20;71.80
10010;DHT22;5044;48.652;9.250;2023-04-06T02:03:22;0.20;72.10
10010;DHT22;5044;48.652;9.250;2023-04-06T02:06:00;0.20;70.70
10010;DHT22;5044;48.652;9.250;2023-04-06T02:08:31;0.50;72.80
10010;DHT22;5044;48.652;9.250;2023-04-06T02:14:16;-0.70;79.90
10010;DHT22;5044;48.652;9.250;2023-04-06T02:16:51;0.10;72.40
10010;DHT22;5044;48.652;9.250;2023-04-06T02:19:26;-0.70;70.80
10010;DHT22;5044;48.652;9.250;2023-04-06T02:35:15;-0.70;64.10
10010;DHT22;5044;48.652;9.250;2023-04-06T02:37:46;-0.80;64.60
10010;DHT22;5044;48.652;9.250;2023-04-06T02:40:23;-1.80;65.60
10010;DHT22;5044;48.652;9.250;2023-04-06T02:42:57;-1.20;65.70
10010;DHT22;5044;48.652;9.250;2023-04-06T02:45:34;-1.30;66.20
10010;DHT22;5044;48.652;9.250;2023-04-06T02:48:04;-1.10;66.50
10010;DHT22;5044;48.652;9.250;2023-04-06T02:50:44;-1.00;69.60
10010;DHT22;5044;48.652;9.250;2023-04-06T02:53:20;-0.20;66.60
10010;DHT22;5044;48.652;9.250;2023-04-06T02:55:51;-0.60;68.60
10010;DHT22;5044;48.652;9.250;2023-04-06T02:58:30;-0.20;67.00
10010;DHT22;5044;48.652;9.250;2023-04-06T03:01:07;-0.50;66.70
10010;DHT22;5044;48.652;9.250;2023-04-06T03:43:56;-1.40;71.60
10010;DHT22;5044;48.652;9.250;2023-04-06T03:46:33;-1.50;71.00
10010;DHT22;5044;48.652;9.250;2023-04-06T03:49:03;-1.00;70.10
10010;DHT22;5044;48.652;9.250;2023-04-06T03:51:30;-1.60;69.00
10010;DHT22;5044;48.652;9.250;2023-04-06T03:53:57;-1.50;71.50
10010;DHT22;5044;48.652;9.250;2023-04-06T03:56:24;-1.50;70.00
10010;DHT22;5044;48.652;9.250;2023-04-06T03:58:51;-0.80;71.20
10010;DHT22;5044;48.652;9.250;2023-04-06T04:07:38;-1.40;73.80
10010;DHT22;5044;48.652;9.250;2023-04-06T04:10:06;-0.80;72.90
10010;DHT22;5044;48.652;9.250;2023-04-06T04:19:26;-1.40;74.40
10010;DHT22;5044;48.652;9.250;2023-04-06T04:24:31;-1.50;74.30
10010;DHT22;5044;48.652;9.250;2023-04-06T04:26:58;-1.20;73.20
10010;DHT22;5044;48.652;9.250;2023-04-06T04:29:26;-1.90;69.50
10010;DHT22;5044;48.652;9.250;2023-04-06T04:35:16;-1.60;71.10
10010;DHT22;5044;48.652;9.250;2023-04-06T04:37:42;-0.80;85.50
10010;DHT22;5044;48.652;9.250;2023-04-06T04:40:11;-2.00;86.10
10010;DHT22;5044;48.652;9.250;2023-04-06T04:42:39;-1.50;89.00
10010;DHT22;5044;48.652;9.250;2023-04-06T04:45:06;-2.00;75.00
10010;DHT22;5044;48.652;9.250;2023-04-06T04:47:33;-1.70;72.80
10010;DHT22;5044;48.652;9.250;2023-04-06T04:50:00;-1.60;75.40
10010;DHT22;5044;48.652;9.250;2023-04-06T05:02:47;-1.90;69.70
10010;DHT22;5044;48.652;9.250;2023-04-06T05:05:14;-2.50;79.50
10010;DHT22;5044;48.652;9.250;2023-04-06T05:21:03;-2.00;84.80
10010;DHT22;5044;48.652;9.250;2023-04-06T05:23:30;-1.00;71.70
10010;DHT22;5044;48.652;9.250;2023-04-06T05:25:58;-2.10;71.00
10010;DHT22;5044;48.652;9.250;2023-04-06T05:28:25;-1.30;74.60
10010;DHT22;5044;48.652;9.250;2023-04-06T05:30:52;-2.50;71.80
10010;DHT22;5044;48.652;9.250;2023-04-06T05:33:20;-1.80;73.30
10010;DHT22;5044;48.652;9.250;2023-04-06T05:35:49;-2.30;76.50
10010;DHT22;5044;48.652;9.250;2023-04-06T05:38:18;-2.00;76.70
10010;DHT22;5044;48.652;9.250;2023-04-06T05:40:45;-1.90;82.70
10010;DHT22;5044;48.652;9.250;2023-04-06T05:46:23;-1.50;79.80
10010;DHT22;5044;48.652;9.250;2023-04-06T05:48:50;-1.80;82.40
10010;DHT22;5044;48.652;9.250;2023-04-06T05:51:17;-0.80;82.50
10010;DHT22;5044;48.652;9.250;2023-04-06T05:53:46;-1.60;83.30
10010;DHT22;5044;48.652;9.250;2023-04-06T05:56:13;-1.30;85.50
10010;DHT22;5044;48.652;9.250;2023-04-06T05:58:40;-1.00;85.40
10010;DHT22;5044;48.652;9.250;2023-04-06T06:01:07;-1.00;85.20
10010;DHT22;5044;48.652;9.250;2023-04-06T06:03:37;-0.20;85.20
10010;DHT22;5044;48.652;9.250;2023-04-06T06:06:05;-0.50;83.90
10010;DHT22;5044;48.652;9.250;2023-04-06T06:08:32;-0.90;82.30
10010;DHT22;5044;48.652;9.250;2023-04-06T06:17:21;0.20;84.20
10010;DHT22;5044;48.652;9.250;2023-04-06T06:19:48;1.00;83.20
10010;DHT22;5044;48.652;9.250;2023-04-06T06:22:15;0.50;82.50
10010;DHT22;5044;48.652;9.250;2023-04-06T06:24:42;0.80;87.30
10010;DHT22;5044;48.652;9.250;2023-04-06T06:27:09;1.20;86.00
10010;DHT22;5044;48.652;9.250;2023-04-06T06:29:36;2.00;83.00
10010;DHT22;5044;48.652;9.250;2023-04-06T06:32:03;0.90;83.20
10010;DHT22;5044;48.652;9.250;2023-04-06T06:34:32;1.30;78.90
10010;DHT22;5044;48.652;9.250;2023-04-06T06:37:01;1.80;84.50
10010;DHT22;5044;48.652;9.250;2023-04-06T06:39:35;1.70;79.60
10010;DHT22;5044;48.652;9.250;2023-04-06T06:44:49;2.30;80.30
10010;DHT22;5044;48.652;9.250;2023-04-06T06:47:19;2.30;76.40
10010;DHT22;5044;48.652;9.250;2023-04-06T06:49:50;3.60;78.50
10010;DHT22;5044;48.652;9.250;2023-04-06T07:02:38;3.80;72.30
10010;DHT22;5044;48.652;9.250;2023-04-06T07:05:07;3.90;70.90
10010;DHT22;5044;48.652;9.250;2023-04-06T07:14:37;4.40;69.20
10010;DHT22;5044;48.652;9.250;2023-04-06T07:24:49;5.50;67.30
10010;DHT22;5044;48.652;9.250;2023-04-06T07:34:14;6.50;63.20
10010;DHT22;5044;48.652;9.250;2023-04-06T08:27:37;11.40;51.20
10010;DHT22;5044;48.652;9.250;2023-04-06T08:30:05;11.70;51.30
10010;DHT22;5044;48.652;9.250;2023-04-06T08:32:48;12.10;50.60
10010;DHT22;5044;48.652;9.250;2023-04-06T08:35:16;12.60;50.70
10010;DHT22;5044;48.652;9.250;2023-04-06T08:37:43;12.80;50.20
10010;DHT22;5044;48.652;9.250;2023-04-06T08:40:12;13.10;50.20
10010;DHT22;5044;48.652;9.250;2023-04-06T08:42:44;13.30;49.10
10010;DHT22;5044;48.652;9.250;2023-04-06T08:45:16;13.50;48.60
10010;DHT22;5044;48.652;9.250;2023-04-06T08:47:43;13.30;47.40
10010;DHT22;5044;48.652;9.250;2023-04-06T08:50:10;13.80;48.00
10010;DHT22;5044;48.652;9.250;2023-04-06T08:52:38;13.70;47.60
10010;DHT22;5044;48.652;9.250;2023-04-06T09:01:25;14.80;47.80
10010;DHT22;5044;48.652;9.250;2023-04-06T09:03:58;15.20;47.20
10010;DHT22;5044;48.652;9.250;2023-04-06T09:06:26;15.40;47.50
10010;DHT22;5044;48.652;9.250;2023-04-06T09:08:53;15.60;45.90
10010;DHT22;5044;48.652;9.250;2023-04-06T09:11:21;15.80;45.90
10010;DHT22;5044;48.652;9.250;2023-04-06T09:13:51;16.10;45.50
10010;DHT22;5044;48.652;9.250;2023-04-06T09:16:19;16.20;44.80
10010;DHT22;5044;48.652;9.250;2023-04-06T09:18:49;15.80;44.00
10010;DHT22;5044;48.652;9.250;2023-04-06T09:21:17;16.10;44.60
10010;DHT22;5044;48.652;9.250;2023-04-06T09:23:45;16.30;43.70
10010;DHT22;5044;48.652;9.250;2023-04-06T09:26:14;16.50;43.40
10010;DHT22;5044;48.652;9.250;2023-04-06T09:28:45;16.60;42.80
10010;DHT22;5044;48.652;9.250;2023-04-06T09:31:13;16.70;42.10
10010;DHT22;5044;48.652;9.250;2023-04-06T09:33:42;17.00;42.40
10010;DHT22;5044;48.652;9.250;2023-04-06T09:36:10;17.30;42.40
10010;DHT22;5044;48.652;9.250;2023-04-06T09:38:51;16.70;40.30
10010;DHT22;5044;48.652;9.250;2023-04-06T09:41:22;17.20;41.90
10010;DHT22;5044;48.652;9.250;2023-04-06T09:43:50;17.40;41.40
10010;DHT22;5044;48.652;9.250;2023-04-06T09:46:17;17.80;42.00
10010;DHT22;5044;48.652;9.250;2023-04-06T09:48:48;18.10;41.70
10010;DHT22;5044;48.652;9.250;2023-04-06T09:51:18;18.20;41.20
10010;DHT22;5044;48.652;9.250;2023-04-06T09:53:52;18.50;40.90
10010;DHT22;5044;48.652;9.250;2023-04-06T09:56:24;18.60;40.30
10010;DHT22;5044;48.652;9.250;2023-04-06T09:58:58;18.90;40.00
10010;DHT22;5044;48.652;9.250;2023-04-06T10:01:30;18.90;39.10
10010;DHT22;5044;48.652;9.250;2023-04-06T10:04:10;17.90;36.20
10010;DHT22;5044;48.652;9.250;2023-04-06T10:06:41;18.40;37.80
10010;DHT22;5044;48.652;9.250;2023-04-06T10:09:08;18.30;37.00
10010;DHT22;5044;48.652;9.250;2023-04-06T10:11:36;17.60;35.20
10010;DHT22;5044;48.652;9.250;2023-04-06T10:14:04;17.80;35.90
10010;DHT22;5044;48.652;9.250;2023-04-06T10:16:32;18.60;37.30
10010;DHT22;5044;48.652;9.250;2023-04-06T10:19:05;19.30;37.60
10010;DHT22;5044;48.652;9.250;2023-04-06T10:21:34;19.70;37.90
10010;DHT22;5044;48.652;9.250;2023-04-06T10:24:07;20.00;37.80
10010;DHT22;5044;48.652;9.250;2023-04-06T10:26:36;19.50;36.00
10010;DHT22;5044;48.652;9.250;2023-04-06T10:29:03;19.80;36.60
10010;DHT22;5044;48.652;9.250;2023-04-06T10:31:31;20.10;36.90
10010;DHT22;5044;48.652;9.250;2023-04-06T10:33:59;20.20;36.60
10010;DHT22;5044;48.652;9.250;2023-04-06T10:36:27;20.10;35.40
10010;DHT22;5044;48.652;9.250;2023-04-06T10:38:56;19.20;34.20
10010;DHT22;5044;48.652;9.250;2023-04-06T10:41:32;19.60;35.40
10010;DHT22;5044;48.652;9.250;2023-04-06T10:43:59;19.50;34.90
10010;DHT22;5044;48.652;9.250;2023-04-06T10:46:28;19.80;35.30
10010;DHT22;5044;48.652;9.250;2023-04-06T10:48:55;20.20;35.70
10010;DHT22;5044;48.652;9.250;2023-04-06T10:51:25;21.00;36.90
10010;DHT22;5044;48.652;9.250;2023-04-06T10:53:54;21.50;37.00
10010;DHT22;5044;48.652;9.250;2023-04-06T10:56:23;21.70;36.30
10010;DHT22;5044;48.652;9.250;2023-04-06T10:58:54;21.20;34.70
10010;DHT22;5044;48.652;9.250;2023-04-06T11:01:23;21.00;34.10
10010;DHT22;5044;48.652;9.250;2023-04-06T11:03:53;21.50;34.80
10010;DHT22;5044;48.652;9.250;2023-04-06T11:06:22;21.60;34.50
10010;DHT22;5044;48.652;9.250;2023-04-06T11:08:50;18.90;30.30
10010;DHT22;5044;48.652;9.250;2023-04-06T11:11:19;19.60;32.00
10010;DHT22;5044;48.652;9.250;2023-04-06T11:13:50;20.40;33.20
10010;DHT22;5044;48.652;9.250;2023-04-06T11:16:20;21.60;35.20
10010;DHT22;5044;48.652;9.250;2023-04-06T11:18:52;21.80;34.40
10010;DHT22;5044;48.652;9.250;2023-04-06T11:21:31;21.40;32.80
10010;DHT22;5044;48.652;9.250;2023-04-06T11:24:05;22.30;34.40
10010;DHT22;5044;48.652;9.250;2023-04-06T11:26:37;22.50;33.80
10010;DHT22;5044;48.652;9.250;2023-04-06T11:29:04;22.60;33.80
10010;DHT22;5044;48.652;9.250;2023-04-06T11:31:38;22.80;33.50
10010;DHT22;5044;48.652;9.250;2023-04-06T11:34:10;23.10;33.70
10010;DHT22;5044;48.652;9.250;2023-04-06T11:36:40;21.90;31.00
10010;DHT22;5044;48.652;9.250;2023-04-06T11:39:08;20.90;30.10
10010;DHT22;5044;48.652;9.250;2023-04-06T11:41:36;21.90;32.00
10010;DHT22;5044;48.652;9.250;2023-04-06T11:44:03;22.40;32.20
10010;DHT22;5044;48.652;9.250;2023-04-06T11:46:33;22.50;32.40
10010;DHT22;5044;48.652;9.250;2023-04-06T11:49:02;22.70;32.40
10010;DHT22;5044;48.652;9.250;2023-04-06T11:51:29;22.30;31.50
10010;DHT22;5044;48.652;9.250;2023-04-06T11:53:56;21.60;30.20
10010;DHT22;5044;48.652;9.250;2023-04-06T11:56:26;22.10;31.70
10010;DHT22;5044;48.652;9.250;2023-04-06T11:58:55;22.50;31.90
10010;DHT22;5044;48.652;9.250;2023-04-06T12:01:22;22.80;32.20
10010;DHT22;5044;48.652;9.250;2023-04-06T12:03:52;22.10;30.60
10010;DHT22;5044;48.652;9.250;2023-04-06T12:06:19;21.40;29.90
10010;DHT22;5044;48.652;9.250;2023-04-06T12:08:46;22.30;31.30
10010;DHT22;5044;48.652;9.250;2023-04-06T12:11:13;23.10;32.50
10010;DHT22;5044;48.652;9.250;2023-04-06T12:13:40;23.60;32.20
10010;DHT22;5044;48.652;9.250;2023-04-06T12:16:07;23.20;31.30
10010;DHT22;5044;48.652;9.250;2023-04-06T12:18:34;23.50;31.70
10010;DHT22;5044;48.652;9.250;2023-04-06T12:21:03;23.30;30.90
10010;DHT22;5044;48.652;9.250;2023-04-06T12:23:31;23.30;30.80
10010;DHT22;5044;48.652;9.250;2023-04-06T12:25:58;23.50;30.70
10010;DHT22;5044;48.652;9.250;2023-04-06T12:28:25;23.50;30.50
10010;DHT22;5044;48.652;9.250;2023-04-06T12:30:52;23.70;30.30
10010;DHT22;5044;48.652;9.250;2023-04-06T12:33:19;23.60;30.20
10010;DHT22;5044;48.652;9.250;2023-04-06T12:35:52;23.50;30.10
10010;DHT22;5044;48.652;9.250;2023-04-06T12:38:23;23.50;30.00
10010;DHT22;5044;48.652;9.250;2023-04-06T12:40:50;23.80;30.00
10010;DHT22;5044;48.652;9.250;2023-04-06T12:43:17;23.30;29.60
10010;DHT22;5044;48.652;9.250;2023-04-06T12:45:44;22.70;28.40
10010;DHT22;5044;48.652;9.250;2023-04-06T12:48:11;23.20;29.40
10010;DHT22;5044;48.652;9.250;2023-04-06T12:50:38;23.60;30.00
10010;DHT22;5044;48.652;9.250;2023-04-06T12:53:05;23.50;29.80
10010;DHT22;5044;48.652;9.250;2023-04-06T12:55:34;24.00;30.20
10010;DHT22;5044;48.652;9.250;2023-04-06T12:58:01;22.30;28.00
10010;DHT22;5044;48.652;9.250;2023-04-06T13:00:28;21.90;28.20
10010;DHT22;5044;48.652;9.250;2023-04-06T13:02:56;22.80;29.10
10010;DHT22;5044;48.652;9.250;2023-04-06T13:05:23;20.00;26.90
10010;DHT22;5044;48.652;9.250;2023-04-06T13:07:50;20.10;27.10
10010;DHT22;5044;48.652;9.250;2023-04-06T13:10:17;19.90;27.00
10010;DHT22;5044;48.652;9.250;2023-04-06T13:12:45;20.60;27.80
10010;DHT22;5044;48.652;9.250;2023-04-06T13:15:12;22.20;29.70
10010;DHT22;5044;48.652;9.250;2023-04-06T13:17:39;22.90;30.60
10010;DHT22;5044;48.652;9.250;2023-04-06T13:20:07;23.30;30.80
10010;DHT22;5044;48.652;9.250;2023-04-06T13:22:34;23.30;30.80
10010;DHT22;5044;48.652;9.250;2023-04-06T13:25:01;23.50;30.40
10010;DHT22;5044;48.652;9.250;2023-04-06T13:27:28;23.70;30.40
10010;DHT22;5044;48.652;9.250;2023-04-06T13:30:00;22.90;29.40
10010;DHT22;5044;48.652;9.250;2023-04-06T13:32:28;23.30;30.00
10010;DHT22;5044;48.652;9.250;2023-04-06T13:34:55;23.60;30.60
10010;DHT22;5044;48.652;9.250;2023-04-06T13:37:22;23.80;30.50
10010;DHT22;5044;48.652;9.250;2023-04-06T13:39:49;23.10;29.00
10010;DHT22;5044;48.652;9.250;2023-04-06T13:42:16;22.90;29.30
10010;DHT22;5044;48.652;9.250;2023-04-06T13:44:43;22.70;29.50
10010;DHT22;5044;48.652;9.250;2023-04-06T13:47:13;23.20;30.40
10010;DHT22;5044;48.652;9.250;2023-04-06T13:49:41;22.90;30.30
10010;DHT22;5044;48.652;9.250;2023-04-06T13:52:07;23.00;30.60
10010;DHT22;5044;48.652;9.250;2023-04-06T13:54:35;23.00;30.50
10010;DHT22;5044;48.652;9.250;2023-04-06T13:57:02;22.50;30.00
10010;DHT22;5044;48.652;9.250;2023-04-06T13:59:32;22.80;30.80
10010;DHT22;5044;48.652;9.250;2023-04-06T14:01:59;22.70;30.90
10010;DHT22;5044;48.652;9.250;2023-04-06T14:04:27;21.60;28.60
10010;DHT22;5044;48.652;9.250;2023-04-06T14:06:54;21.90;29.30
10010;DHT22;5044;48.652;9.250;2023-04-06T14:09:21;21.10;28.50
10010;DHT22;5044;48.652;9.250;2023-04-06T14:11:48;21.60;29.70
10010;DHT22;5044;48.652;9.250;2023-04-06T14:14:16;21.40;29.50
10010;DHT22;5044;48.652;9.250;2023-04-06T14:16:43;21.00;29.00
10010;DHT22;5044;48.652;9.250;2023-04-06T14:19:10;20.80;29.40
10010;DHT22;5044;48.652;9.250;2023-04-06T14:21:39;21.40;30.50
10010;DHT22;5044;48.652;9.250;2023-04-06T14:24:06;22.00;31.80
10010;DHT22;5044;48.652;9.250;2023-04-06T14:26:34;21.90;31.70
10010;DHT22;5044;48.652;9.250;2023-04-06T14:29:01;22.10;32.30
10010;DHT22;5044;48.652;9.250;2023-04-06T14:31:29;22.00;32.70
10010;DHT22;5044;48.652;9.250;2023-04-06T14:33:56;21.20;31.00
10010;DHT22;5044;48.652;9.250;2023-04-06T14:36:23;21.40;31.30
10010;DHT22;5044;48.652;9.250;2023-04-06T14:38:54;21.20;31.10
10010;DHT22;5044;48.652;9.250;2023-04-06T14:41:24;21.00;31.10
10010;DHT22;5044;48.652;9.250;2023-04-06T14:43:51;21.10;31.20
10010;DHT22;5044;48.652;9.250;2023-04-06T14:46:18;21.10;31.70
10010;DHT22;5044;48.652;9.250;2023-04-06T14:48:46;20.40;30.20
10010;DHT22;5044;48.652;9.250;2023-04-06T14:51:13;19.40;29.10
10010;DHT22;5044;48.652;9.250;2023-04-06T14:53:40;19.80;29.60
10010;DHT22;5044;48.652;9.250;2023-04-06T14:56:08;19.50;29.50
10010;DHT22;5044;48.652;9.250;2023-04-06T14:58:35;20.20;30.50
10010;DHT22;5044;48.652;9.250;2023-04-06T15:01:02;20.40;30.70
10010;DHT22;5044;48.652;9.250;2023-04-06T15:03:30;19.50;29.60
10010;DHT22;5044;48.652;9.250;2023-04-06T15:05:57;19.70;30.10
10010;DHT22;5044;48.652;9.250;2023-04-06T15:08:25;20.00;30.70
10010;DHT22;5044;48.652;9.250;2023-04-06T15:10:52;19.80;30.40
10010;DHT22;5044;48.652;9.250;2023-04-06T15:13:21;18.30;29.10
10010;DHT22;5044;48.652;9.250;2023-04-06T15:25:31;16.40;28.60
10010;DHT22;5044;48.652;9.250;2023-04-06T15:40:43;16.30;30.40
10010;DHT22;5044;48.652;9.250;2023-04-06T15:52:58;14.90;30.60
10010;DHT22;5044;48.652;9.250;2023-04-06T15:55:31;15.30;31.40
10010;DHT22;5044;48.652;9.250;2023-04-06T18:15:02;10.00;41.50
10010;DHT22;5044;48.652;9.250;2023-04-06T18:17:29;10.10;41.10
10010;DHT22;5044;48.652;9.250;2023-04-06T18:19:59;10.10;41.20
10010;DHT22;5044;48.652;9.250;2023-04-06T18:22:27;10.10;41.20
10010;DHT22;5044;48.652;9.250;2023-04-06T18:24:56;10.10;41.10
10010;DHT22;5044;48.652;9.250;2023-04-06T18:27:24;10.00;41.00
10010;DHT22;5044;48.652;9.250;2023-04-06T18:30:04;10.00;40.90
10010;DHT22;5044;48.652;9.250;2023-04-06T18:32:34;10.00;40.90
10010;DHT22;5044;48.652;9.250;2023-04-06T18:35:06;9.90;41.80
10010;DHT22;5044;48.652;9.250;2023-04-06T18:37:40;9.70;41.80
10010;DHT22;5044;48.652;9.250;2023-04-06T18:40:31;9.70;41.80
10010;DHT22;5044;48.652;9.250;2023-04-06T18:43:05;9.80;42.00
10010;DHT22;5044;48.652;9.250;2023-04-06T18:45:37;9.80;42.10
10010;DHT22;5044;48.652;9.250;2023-04-06T18:48:14;9.90;42.30
10010;DHT22;5044;48.652;9.250;2023-04-06T18:50:50;9.70;42.20
10010;DHT22;5044;48.652;9.250;2023-04-06T18:53:22;9.70;42.30
10010;DHT22;5044;48.652;9.250;2023-04-06T18:55:51;9.70;42.40
10010;DHT22;5044;48.652;9.250;2023-04-06T18:58:22;9.70;42.60
10010;DHT22;5044;48.652;9.250;2023-04-06T19:00:56;9.70;42.80
10010;DHT22;5044;48.652;9.250;2023-04-06T19:03:34;9.60;42.80
10010;DHT22;5044;48.652;9.250;2023-04-06T19:06:04;9.60;42.90
10010;DHT22;5044;48.652;9.250;2023-04-06T19:08:39;9.60;43.10
10010;DHT22;5044;48.652;9.250;2023-04-06T19:11:07;9.70;43.40
10010;DHT22;5044;48.652;9.250;2023-04-06T19:13:38;9.80;43.70
10010;DHT22;5044;48.652;9.250;2023-04-06T19:16:12;9.90;44.00
10010;DHT22;5044;48.652;9.250;2023-04-06T19:18:42;9.80;43.90
10010;DHT22;5044;48.652;9.250;2023-04-06T19:21:16;9.70;43.90
10010;DHT22;5044;48.652;9.250;2023-04-06T19:24:08;9.50;43.80
10010;DHT22;5044;48.652;9.250;2023-04-06T19:27:08;9.50;43.80
10010;DHT22;5044;48.652;9.250;2023-04-06T19:43:41;9.30;44.70
10010;DHT22;5044;48.652;9.250;2023-04-06T19:46:24;9.40;45.00
10010;DHT22;5044;48.652;9.250;2023-04-06T21:53:12;7.80;80.50
10010;DHT22;5044;48.652;9.250;2023-04-06T21:58:37;7.20;99.90
10010;DHT22;5044;48.652;9.250;2023-04-06T22:01:08;7.20;93.90
10010;DHT22;5044;48.652;9.250;2023-04-06T22:03:40;7.30;91.70
10010;DHT22;5044;48.652;9.250;2023-04-06T22:06:14;7.50;92.00
10010;DHT22;5044;48.652;9.250;2023-04-06T22:08:43;7.80;90.40
10010;DHT22;5044;48.652;9.250;2023-04-06T22:11:26;7.70;83.20
10010;DHT22;5044;48.652;9.250;2023-04-06T22:14:04;7.70;87.80
10010;DHT22;5044;48.652;9.250;2023-04-06T22:16:59;7.70;81.50
10010;DHT22;5044;48.652;9.250;2023-04-06T22:19:39;7.70;80.50
10010;DHT22;5044;48.652;9.250;2023-04-06T22:22:09;7.60;93.30
10010;DHT22;5044;48.652;9.250;2023-04-06T22:34:59;7.70;77.00
10010;DHT22;5044;48.652;9.250;2023-04-06T22:37:27;7.70;76.30
10010;DHT22;5044;48.652;9.250;2023-04-06T22:39:54;7.70;76.50
10010;DHT22;5044;48.652;9.250;2023-04-06T22:42:21;7.80;84.30
10010;DHT22;5044;48.652;9.250;2023-04-06T22:44:48;7.70;81.40
10010;DHT22;5044;48.652;9.250;2023-04-06T22:47:16;7.70;85.00
10010;DHT22;5044;48.652;9.250;2023-04-06T22:49:44;7.70;79.80
10010;DHT22;5044;48.652;9.250;2023-04-06T22:54:49;7.70;80.30
10010;DHT22;5044;48.652;9.250;2023-04-06T22:57:19;7.70;81.80
10010;DHT22;5044;48.652;9.250;2023-04-06T23:00:00;7.70;79.20
10010;DHT22;5044;48.652;9.250;2023-04-06T23:02:36;7.60;79.50
10010;DHT22;5044;48.652;9.250;2023-04-06T23:05:15;7.60;80.50
10010;DHT22;5044;48.652;9.250;2023-04-06T23:07:55;7.60;84.50
10010;DHT22;5044;48.652;9.250;2023-04-06T23:10:26;7.50;90.60
10010;DHT22;5044;48.652;9.250;2023-04-06T23:12:53;7.50;93.10
10010;DHT22;5044;48.652;9.250;2023-04-06T23:15:20;7.50;87.30
10010;DHT22;5044;48.652;9.250;2023-04-06T23:17:47;7.50;83.90
10010;DHT22;5044;48.652;9.250;2023-04-06T23:20:14;7.70;84.00
